sensor_id;sensor_type;location;lat;lon;timestamp;temperature;humidity
30148;DHT22;16960;49.404;8.248;2024-02-26T00:02:08;20.80;36.40
30148;DHT22;16960;49.404;8.248;2024-02-26T00:04:36;20.80;36.40
30148;DHT22;16960;49.404;8.248;2024-02-26T00:07:03;20.80;36.40
30148;DHT22;16960;49.404;8.248;2024-02-26T00:09:30;20.80;36.50
30148;DHT22;16960;49.404;8.248;2024-02-26T00:11:58;20.80;36.50
30148;DHT22;16960;49.404;8.248;2024-02-26T00:14:25;20.80;36.50
30148;DHT22;16960;49.404;8.248;2024-02-26T00:16:52;20.80;36.50
30148;DHT22;16960;49.404;8.248;2024-02-26T00:19:19;20.80;36.60
30148;DHT22;16960;49.404;8.248;2024-02-26T00:21:47;20.70;36.60
30148;DHT22;16960;49.404;8.248;2024-02-26T00:24:14;20.70;36.60
30148;DHT22;16960;49.404;8.248;2024-02-26T00:26:41;20.80;36.60
30148;DHT22;16960;49.404;8.248;2024-02-26T00:29:08;20.70;36.60
30148;DHT22;16960;49.404;8.248;2024-02-26T00:31:36;20.70;36.70
30148;DHT22;16960;49.404;8.248;2024-02-26T00:34:03;20.70;36.80
30148;DHT22;16960;49.404;8.248;2024-02-26T00:36:30;20.70;36.70
30148;DHT22;16960;49.404;8.248;2024-02-26T00:38:58;20.70;36.80
30148;DHT22;16960;49.404;8.248;2024-02-26T00:41:25;20.70;36.80
30148;DHT22;16960;49.404;8.248;2024-02-26T00:43:52;20.70;36.80
30148;DHT22;16960;49.404;8.248;2024-02-26T00:46:19;20.70;36.80
30148;DHT22;16960;49.404;8.248;2024-02-26T00:48:46;20.70;36.80
30148;DHT22;16960;49.404;8.248;2024-02-26T00:51:13;20.70;36.80
30148;DHT22;16960;49.404;8.248;2024-02-26T00:53:41;20.70;36.70
30148;DHT22;16960;49.404;8.248;2024-02-26T00:56:09;20.70;36.70
30148;DHT22;16960;49.404;8.248;2024-02-26T00:58:36;20.70;36.70
30148;DHT22;16960;49.404;8.248;2024-02-26T01:01:03;20.70;36.70
30148;DHT22;16960;49.404;8.248;2024-02-26T01:03:30;20.70;36.70
30148;DHT22;16960;49.404;8.248;2024-02-26T01:05:57;20.70;36.70
30148;DHT22;16960;49.404;8.248;2024-02-26T01:08:24;20.60;36.60
30148;DHT22;16960;49.404;8.248;2024-02-26T01:10:50;20.60;36.60
30148;DHT22;16960;49.404;8.248;2024-02-26T01:13:19;20.70;36.60
30148;DHT22;16960;49.404;8.248;2024-02-26T01:15:46;20.60;36.50
30148;DHT22;16960;49.404;8.248;2024-02-26T01:18:13;20.70;36.60
30148;DHT22;16960;49.404;8.248;2024-02-26T01:20:40;20.60;36.60
30148;DHT22;16960;49.404;8.248;2024-02-26T01:23:06;20.60;36.60
30148;DHT22;16960;49.404;8.248;2024-02-26T01:25:33;20.60;36.60
30148;DHT22;16960;49.404;8.248;2024-02-26T01:28:00;20.60;36.60
30148;DHT22;16960;49.404;8.248;2024-02-26T01:30:28;20.60;36.60
30148;DHT22;16960;49.404;8.248;2024-02-26T01:32:55;20.60;36.60
30148;DHT22;16960;49.404;8.248;2024-02-26T01:35:22;20.60;36.60
30148;DHT22;16960;49.404;8.248;2024-02-26T01:37:48;20.60;36.50
30148;DHT22;16960;49.404;8.248;2024-02-26T01:40:15;20.60;36.50
30148;DHT22;16960;49.404;8.248;2024-02-26T01:42:45;20.60;36.40
30148;DHT22;16960;49.404;8.248;2024-02-26T01:45:15;20.60;36.40
30148;DHT22;16960;49.404;8.248;2024-02-26T01:47:49;20.60;36.40
30148;DHT22;16960;49.404;8.248;2024-02-26T01:50:17;20.60;36.40
30148;DHT22;16960;49.404;8.248;2024-02-26T01:52:44;20.60;36.40
30148;DHT22;16960;49.404;8.248;2024-02-26T01:55:12;20.60;36.40
30148;DHT22;16960;49.404;8.248;2024-02-26T01:57:40;20.60;36.50
30148;DHT22;16960;49.404;8.248;2024-02-26T02:00:08;20.60;36.50
30148;DHT22;16960;49.404;8.248;2024-02-26T02:02:35;20.60;36.60
30148;DHT22;16960;49.404;8.248;2024-02-26T02:05:06;20.60;36.60
30148;DHT22;16960;49.404;8.248;2024-02-26T02:07:35;20.60;36.70
30148;DHT22;16960;49.404;8.248;2024-02-26T02:10:04;20.60;36.60
30148;DHT22;16960;49.404;8.248;2024-02-26T02:12:32;20.60;36.70
30148;DHT22;16960;49.404;8.248;2024-02-26T02:15:00;20.50;36.70
30148;DHT22;16960;49.404;8.248;2024-02-26T02:17:27;20.60;36.80
30148;DHT22;16960;49.404;8.248;2024-02-26T02:19:54;20.60;36.80
30148;DHT22;16960;49.404;8.248;2024-02-26T02:22:23;20.50;36.80
30148;DHT22;16960;49.404;8.248;2024-02-26T02:24:51;20.50;36.90
30148;DHT22;16960;49.404;8.248;2024-02-26T02:27:19;20.50;36.90
30148;DHT22;16960;49.404;8.248;2024-02-26T02:29:46;20.50;36.90
30148;DHT22;16960;49.404;8.248;2024-02-26T02:32:14;20.50;36.90
30148;DHT22;16960;49.404;8.248;2024-02-26T02:34:43;20.60;36.80
30148;DHT22;16960;49.404;8.248;2024-02-26T02:37:10;20.50;36.80
30148;DHT22;16960;49.404;8.248;2024-02-26T02:39:38;20.50;37.40
30148;DHT22;16960;49.404;8.248;2024-02-26T02:42:05;20.50;36.80
30148;DHT22;16960;49.404;8.248;2024-02-26T02:44:32;20.50;36.80
30148;DHT22;16960;49.404;8.248;2024-02-26T02:46:59;20.50;36.80
30148;DHT22;16960;49.404;8.248;2024-02-26T02:49:26;20.50;36.80
30148;DHT22;16960;49.404;8.248;2024-02-26T02:51:53;20.50;36.80
30148;DHT22;16960;49.404;8.248;2024-02-26T02:54:20;20.50;36.80
30148;DHT22;16960;49.404;8.248;2024-02-26T02:56:48;20.50;36.80
30148;DHT22;16960;49.404;8.248;2024-02-26T02:59:15;20.50;36.80
30148;DHT22;16960;49.404;8.248;2024-02-26T03:01:42;20.50;36.80
30148;DHT22;16960;49.404;8.248;2024-02-26T03:04:09;20.50;36.80
30148;DHT22;16960;49.404;8.248;2024-02-26T03:06:36;20.50;36.80
30148;DHT22;16960;49.404;8.248;2024-02-26T03:09:03;20.50;36.80
30148;DHT22;16960;49.404;8.248;2024-02-26T03:11:30;20.50;36.80
30148;DHT22;16960;49.404;8.248;2024-02-26T03:13:58;20.50;36.80
30148;DHT22;16960;49.404;8.248;2024-02-26T03:16:25;20.50;36.80
30148;DHT22;16960;49.404;8.248;2024-02-26T03:18:52;20.40;36.70
30148;DHT22;16960;49.404;8.248;2024-02-26T03:21:19;20.50;36.90
30148;DHT22;16960;49.404;8.248;2024-02-26T03:23:46;20.40;36.80
30148;DHT22;16960;49.404;8.248;2024-02-26T03:26:13;20.50;36.90
30148;DHT22;16960;49.404;8.248;2024-02-26T03:28:40;20.40;36.80
30148;DHT22;16960;49.404;8.248;2024-02-26T03:31:08;20.40;36.80
30148;DHT22;16960;49.404;8.248;2024-02-26T03:33:36;20.40;36.80
30148;DHT22;16960;49.404;8.248;2024-02-26T03:36:03;20.40;36.80
30148;DHT22;16960;49.404;8.248;2024-02-26T03:38:30;20.40;36.90
30148;DHT22;16960;49.404;8.248;2024-02-26T03:40:57;20.40;36.90
30148;DHT22;16960;49.404;8.248;2024-02-26T03:43:24;20.40;36.90
30148;DHT22;16960;49.404;8.248;2024-02-26T03:45:51;20.40;36.90
30148;DHT22;16960;49.404;8.248;2024-02-26T03:48:19;20.40;36.90
30148;DHT22;16960;49.404;8.248;2024-02-26T03:50:46;20.40;36.90
30148;DHT22;16960;49.404;8.248;2024-02-26T03:53:13;20.40;36.90
30148;DHT22;16960;49.404;8.248;2024-02-26T03:55:40;20.40;37.20
30148;DHT22;16960;49.404;8.248;2024-02-26T03:58:08;20.40;37.00
30148;DHT22;16960;49.404;8.248;2024-02-26T04:00:35;20.40;37.00
30148;DHT22;16960;49.404;8.248;2024-02-26T04:03:02;20.30;37.00
30148;DHT22;16960;49.404;8.248;2024-02-26T04:05:30;20.40;37.00
30148;DHT22;16960;49.404;8.248;2024-02-26T04:07:57;20.40;37.00
30148;DHT22;16960;49.404;8.248;2024-02-26T04:10:24;20.40;37.00
30148;DHT22;16960;49.404;8.248;2024-02-26T04:12:51;20.40;37.00
30148;DHT22;16960;49.404;8.248;2024-02-26T04:15:18;20.30;37.00
30148;DHT22;16960;49.404;8.248;2024-02-26T04:17:45;20.40;37.10
30148;DHT22;16960;49.404;8.248;2024-02-26T04:20:15;20.30;37.00
30148;DHT22;16960;49.404;8.248;2024-02-26T04:22:44;20.30;37.00
30148;DHT22;16960;49.404;8.248;2024-02-26T04:25:11;20.30;37.10
30148;DHT22;16960;49.404;8.248;2024-02-26T04:27:38;20.30;37.10
30148;DHT22;16960;49.404;8.248;2024-02-26T04:30:06;20.30;37.10
30148;DHT22;16960;49.404;8.248;2024-02-26T04:32:33;20.30;37.10
30148;DHT22;16960;49.404;8.248;2024-02-26T04:35:01;20.30;37.10
30148;DHT22;16960;49.404;8.248;2024-02-26T04:37:28;20.30;37.10
30148;DHT22;16960;49.404;8.248;2024-02-26T04:39:58;20.30;37.10
30148;DHT22;16960;49.404;8.248;2024-02-26T04:42:25;20.30;37.10
30148;DHT22;16960;49.404;8.248;2024-02-26T04:44:52;20.30;37.10
30148;DHT22;16960;49.404;8.248;2024-02-26T04:47:19;20.30;37.10
30148;DHT22;16960;49.404;8.248;2024-02-26T04:49:47;20.30;37.10
30148;DHT22;16960;49.404;8.248;2024-02-26T04:52:14;20.30;37.10
30148;DHT22;16960;49.404;8.248;2024-02-26T04:54:41;20.30;37.10
30148;DHT22;16960;49.404;8.248;2024-02-26T04:57:10;20.30;37.10
30148;DHT22;16960;49.404;8.248;2024-02-26T04:59:37;20.30;37.10
30148;DHT22;16960;49.404;8.248;2024-02-26T05:02:04;20.30;37.10
30148;DHT22;16960;49.404;8.248;2024-02-26T05:04:31;20.30;37.10
30148;DHT22;16960;49.404;8.248;2024-02-26T05:06:57;20.20;37.00
30148;DHT22;16960;49.404;8.248;2024-02-26T05:09:24;20.30;37.10
30148;DHT22;16960;49.404;8.248;2024-02-26T05:11:51;20.30;37.10
30148;DHT22;16960;49.404;8.248;2024-02-26T05:14:20;20.30;37.10
30148;DHT22;16960;49.404;8.248;2024-02-26T05:16:47;20.30;37.10
30148;DHT22;16960;49.404;8.248;2024-02-26T05:19:14;20.30;37.10
30148;DHT22;16960;49.404;8.248;2024-02-26T05:21:41;20.30;37.20
30148;DHT22;16960;49.404;8.248;2024-02-26T05:24:09;20.30;37.20
30148;DHT22;16960;49.404;8.248;2024-02-26T05:26:36;20.30;37.20
30148;DHT22;16960;49.404;8.248;2024-02-26T05:29:03;20.20;37.10
30148;DHT22;16960;49.404;8.248;2024-02-26T05:31:31;20.30;37.70
30148;DHT22;16960;49.404;8.248;2024-02-26T05:33:58;20.20;37.00
30148;DHT22;16960;49.404;8.248;2024-02-26T05:36:25;20.20;37.10
30148;DHT22;16960;49.404;8.248;2024-02-26T05:38:54;20.30;37.10
30148;DHT22;16960;49.404;8.248;2024-02-26T05:41:21;20.30;37.10
30148;DHT22;16960;49.404;8.248;2024-02-26T05:43:51;20.30;37.10
30148;DHT22;16960;49.404;8.248;2024-02-26T05:46:18;20.30;37.10
30148;DHT22;16960;49.404;8.248;2024-02-26T05:48:48;20.30;37.10
30148;DHT22;16960;49.404;8.248;2024-02-26T05:51:15;20.20;37.00
30148;DHT22;16960;49.404;8.248;2024-02-26T05:53:42;20.30;37.10
30148;DHT22;16960;49.404;8.248;2024-02-26T05:56:08;20.30;37.10
30148;DHT22;16960;49.404;8.248;2024-02-26T05:58:35;20.30;37.10
30148;DHT22;16960;49.404;8.248;2024-02-26T06:01:03;20.30;37.10
30148;DHT22;16960;49.404;8.248;2024-02-26T06:03:30;20.30;37.10
30148;DHT22;16960;49.404;8.248;2024-02-26T06:05:59;20.30;37.10
30148;DHT22;16960;49.404;8.248;2024-02-26T06:08:26;20.30;37.10
30148;DHT22;16960;49.404;8.248;2024-02-26T06:10:53;20.30;37.30
30148;DHT22;16960;49.404;8.248;2024-02-26T06:13:20;20.30;37.30
30148;DHT22;16960;49.404;8.248;2024-02-26T06:15:47;20.30;37.40
30148;DHT22;16960;49.404;8.248;2024-02-26T06:18:14;20.30;37.50
30148;DHT22;16960;49.404;8.248;2024-02-26T06:20:41;20.30;37.50
30148;DHT22;16960;49.404;8.248;2024-02-26T06:23:09;20.30;37.50
30148;DHT22;16960;49.404;8.248;2024-02-26T06:25:36;20.30;37.50
30148;DHT22;16960;49.404;8.248;2024-02-26T06:28:04;20.40;37.50
30148;DHT22;16960;49.404;8.248;2024-02-26T06:30:31;20.40;37.40
30148;DHT22;16960;49.404;8.248;2024-02-26T06:32:58;20.40;37.40
30148;DHT22;16960;49.404;8.248;2024-02-26T06:35:25;20.50;37.50
30148;DHT22;16960;49.404;8.248;2024-02-26T06:37:52;20.50;37.50
30148;DHT22;16960;49.404;8.248;2024-02-26T06:40:20;20.50;37.40
30148;DHT22;16960;49.404;8.248;2024-02-26T06:42:47;20.60;37.40
30148;DHT22;16960;49.404;8.248;2024-02-26T06:45:15;20.60;37.40
30148;DHT22;16960;49.404;8.248;2024-02-26T06:47:42;20.60;37.40
30148;DHT22;16960;49.404;8.248;2024-02-26T06:50:12;20.60;37.30
30148;DHT22;16960;49.404;8.248;2024-02-26T06:52:39;20.70;37.40
30148;DHT22;16960;49.404;8.248;2024-02-26T06:55:06;20.70;37.30
30148;DHT22;16960;49.404;8.248;2024-02-26T06:57:35;20.70;37.30
30148;DHT22;16960;49.404;8.248;2024-02-26T07:00:03;20.80;37.20
30148;DHT22;16960;49.404;8.248;2024-02-26T07:02:30;20.80;37.20
30148;DHT22;16960;49.404;8.248;2024-02-26T07:04:57;20.80;37.20
30148;DHT22;16960;49.404;8.248;2024-02-26T07:07:24;20.90;37.40
30148;DHT22;16960;49.404;8.248;2024-02-26T07:09:51;20.90;37.70
30148;DHT22;16960;49.404;8.248;2024-02-26T07:12:18;20.90;37.60
30148;DHT22;16960;49.404;8.248;2024-02-26T07:14:48;21.00;37.50
30148;DHT22;16960;49.404;8.248;2024-02-26T07:17:16;21.00;37.40
30148;DHT22;16960;49.404;8.248;2024-02-26T07:19:43;21.10;37.40
30148;DHT22;16960;49.404;8.248;2024-02-26T07:22:10;21.10;37.40
30148;DHT22;16960;49.404;8.248;2024-02-26T07:24:37;21.20;37.30
30148;DHT22;16960;49.404;8.248;2024-02-26T07:27:04;21.20;37.20
30148;DHT22;16960;49.404;8.248;2024-02-26T07:29:31;21.30;37.20
30148;DHT22;16960;49.404;8.248;2024-02-26T07:32:00;21.30;37.30
30148;DHT22;16960;49.404;8.248;2024-02-26T07:34:27;21.30;37.20
30148;DHT22;16960;49.404;8.248;2024-02-26T07:36:55;21.40;37.00
30148;DHT22;16960;49.404;8.248;2024-02-26T07:39:22;21.40;36.90
30148;DHT22;16960;49.404;8.248;2024-02-26T07:41:49;21.50;36.90
30148;DHT22;16960;49.404;8.248;2024-02-26T07:44:18;21.50;36.80
30148;DHT22;16960;49.404;8.248;2024-02-26T07:46:45;21.50;36.80
30148;DHT22;16960;49.404;8.248;2024-02-26T07:49:13;21.50;36.70
30148;DHT22;16960;49.404;8.248;2024-02-26T07:51:40;21.60;36.60
30148;DHT22;16960;49.404;8.248;2024-02-26T07:54:07;21.60;36.70
30148;DHT22;16960;49.404;8.248;2024-02-26T07:56:34;21.70;36.70
30148;DHT22;16960;49.404;8.248;2024-02-26T07:59:01;21.70;36.60
30148;DHT22;16960;49.404;8.248;2024-02-26T08:01:28;21.70;36.50
30148;DHT22;16960;49.404;8.248;2024-02-26T08:03:55;21.80;36.50
30148;DHT22;16960;49.404;8.248;2024-02-26T08:06:23;21.80;36.50
30148;DHT22;16960;49.404;8.248;2024-02-26T08:08:51;21.80;36.40
30148;DHT22;16960;49.404;8.248;2024-02-26T08:11:18;21.90;36.40
30148;DHT22;16960;49.404;8.248;2024-02-26T08:13:45;21.90;36.30
30148;DHT22;16960;49.404;8.248;2024-02-26T08:16:12;22.00;36.20
30148;DHT22;16960;49.404;8.248;2024-02-26T08:18:39;22.00;36.10
30148;DHT22;16960;49.404;8.248;2024-02-26T08:21:06;22.00;36.00
30148;DHT22;16960;49.404;8.248;2024-02-26T08:23:35;22.10;36.10
30148;DHT22;16960;49.404;8.248;2024-02-26T08:26:02;22.10;36.00
30148;DHT22;16960;49.404;8.248;2024-02-26T08:28:32;22.20;36.00
30148;DHT22;16960;49.404;8.248;2024-02-26T08:30:59;22.20;35.90
30148;DHT22;16960;49.404;8.248;2024-02-26T08:33:26;22.20;35.90
30148;DHT22;16960;49.404;8.248;2024-02-26T08:35:53;22.20;36.40
30148;DHT22;16960;49.404;8.248;2024-02-26T08:38:20;22.30;35.80
30148;DHT22;16960;49.404;8.248;2024-02-26T08:40:48;22.30;35.70
30148;DHT22;16960;49.404;8.248;2024-02-26T08:43:15;22.30;35.70
30148;DHT22;16960;49.404;8.248;2024-02-26T08:45:43;22.40;35.60
30148;DHT22;16960;49.404;8.248;2024-02-26T08:48:10;22.40;35.60
30148;DHT22;16960;49.404;8.248;2024-02-26T08:50:37;22.40;35.60
30148;DHT22;16960;49.404;8.248;2024-02-26T08:53:04;22.40;35.60
30148;DHT22;16960;49.404;8.248;2024-02-26T08:55:31;22.40;35.60
30148;DHT22;16960;49.404;8.248;2024-02-26T08:57:59;22.50;35.70
30148;DHT22;16960;49.404;8.248;2024-02-26T09:00:26;22.50;35.60
30148;DHT22;16960;49.404;8.248;2024-02-26T09:02:53;22.50;35.60
30148;DHT22;16960;49.404;8.248;2024-02-26T09:05:20;22.50;35.60
30148;DHT22;16960;49.404;8.248;2024-02-26T09:07:47;22.60;35.60
30148;DHT22;16960;49.404;8.248;2024-02-26T09:10:14;22.60;35.50
30148;DHT22;16960;49.404;8.248;2024-02-26T09:12:41;22.60;35.50
30148;DHT22;16960;49.404;8.248;2024-02-26T09:15:09;22.60;35.50
30148;DHT22;16960;49.404;8.248;2024-02-26T09:17:37;22.60;35.40
30148;DHT22;16960;49.404;8.248;2024-02-26T09:20:05;22.60;35.40
30148;DHT22;16960;49.404;8.248;2024-02-26T09:22:34;22.60;35.30
30148;DHT22;16960;49.404;8.248;2024-02-26T09:25:04;22.70;35.40
30148;DHT22;16960;49.404;8.248;2024-02-26T09:27:32;22.70;35.40
30148;DHT22;16960;49.404;8.248;2024-02-26T09:29:58;22.80;35.40
30148;DHT22;16960;49.404;8.248;2024-02-26T09:32:27;22.70;35.50
30148;DHT22;16960;49.404;8.248;2024-02-26T09:34:54;22.70;35.40
30148;DHT22;16960;49.404;8.248;2024-02-26T09:37:20;22.70;35.40
30148;DHT22;16960;49.404;8.248;2024-02-26T09:39:47;22.70;35.30
30148;DHT22;16960;49.404;8.248;2024-02-26T09:42:18;22.80;35.30
30148;DHT22;16960;49.404;8.248;2024-02-26T09:44:46;22.70;35.30
30148;DHT22;16960;49.404;8.248;2024-02-26T09:47:16;22.80;35.30
30148;DHT22;16960;49.404;8.248;2024-02-26T09:49:45;22.80;35.30
30148;DHT22;16960;49.404;8.248;2024-02-26T09:52:13;22.70;35.30
30148;DHT22;16960;49.404;8.248;2024-02-26T09:54:42;22.80;35.30
30148;DHT22;16960;49.404;8.248;2024-02-26T09:57:14;22.80;35.30
30148;DHT22;16960;49.404;8.248;2024-02-26T09:59:43;22.80;35.30
30148;DHT22;16960;49.404;8.248;2024-02-26T10:02:12;22.80;35.30
30148;DHT22;16960;49.404;8.248;2024-02-26T10:04:40;22.80;35.30
30148;DHT22;16960;49.404;8.248;2024-02-26T10:07:11;22.80;35.30
30148;DHT22;16960;49.404;8.248;2024-02-26T10:09:38;22.80;35.30
30148;DHT22;16960;49.404;8.248;2024-02-26T10:12:07;22.80;35.30
30148;DHT22;16960;49.404;8.248;2024-02-26T10:14:35;22.80;35.30
30148;DHT22;16960;49.404;8.248;2024-02-26T10:17:04;22.80;35.30
30148;DHT22;16960;49.404;8.248;2024-02-26T10:19:33;22.80;35.30
30148;DHT22;16960;49.404;8.248;2024-02-26T10:22:01;22.90;35.20
30148;DHT22;16960;49.404;8.248;2024-02-26T10:24:31;23.20;34.80
30148;DHT22;16960;49.404;8.248;2024-02-26T10:26:58;23.60;34.40
30148;DHT22;16960;49.404;8.248;2024-02-26T10:29:26;24.10;33.90
30148;DHT22;16960;49.404;8.248;2024-02-26T10:31:53;24.50;33.50
30148;DHT22;16960;49.404;8.248;2024-02-26T10:34:20;24.70;33.30
30148;DHT22;16960;49.404;8.248;2024-02-26T10:36:48;24.60;33.30
30148;DHT22;16960;49.404;8.248;2024-02-26T10:39:15;24.50;33.50
30148;DHT22;16960;49.404;8.248;2024-02-26T10:41:44;24.40;33.70
30148;DHT22;16960;49.404;8.248;2024-02-26T10:44:12;24.30;33.90
30148;DHT22;16960;49.404;8.248;2024-02-26T10:46:40;24.20;33.90
30148;DHT22;16960;49.404;8.248;2024-02-26T10:49:13;24.10;34.10
30148;DHT22;16960;49.404;8.248;2024-02-26T10:51:44;24.00;34.20
30148;DHT22;16960;49.404;8.248;2024-02-26T10:54:15;23.90;34.30
30148;DHT22;16960;49.404;8.248;2024-02-26T10:56:43;23.90;34.40
30148;DHT22;16960;49.404;8.248;2024-02-26T10:59:13;23.80;34.50
30148;DHT22;16960;49.404;8.248;2024-02-26T11:01:41;23.80;34.50
30148;DHT22;16960;49.404;8.248;2024-02-26T11:04:12;23.70;34.70
30148;DHT22;16960;49.404;8.248;2024-02-26T11:06:40;23.70;34.80
30148;DHT22;16960;49.404;8.248;2024-02-26T11:09:08;23.70;34.80
30148;DHT22;16960;49.404;8.248;2024-02-26T11:11:38;23.70;35.00
30148;DHT22;16960;49.404;8.248;2024-02-26T11:14:08;23.60;34.80
30148;DHT22;16960;49.404;8.248;2024-02-26T11:16:37;23.60;34.90
30148;DHT22;16960;49.404;8.248;2024-02-26T11:19:06;23.60;34.90
30148;DHT22;16960;49.404;8.248;2024-02-26T11:21:35;23.60;35.00
30148;DHT22;16960;49.404;8.248;2024-02-26T11:24:08;23.60;34.90
30148;DHT22;16960;49.404;8.248;2024-02-26T11:26:39;23.60;35.00
30148;DHT22;16960;49.404;8.248;2024-02-26T11:29:15;23.50;35.00
30148;DHT22;16960;49.404;8.248;2024-02-26T11:31:42;23.50;35.00
30148;DHT22;16960;49.404;8.248;2024-02-26T11:34:11;23.50;35.10
30148;DHT22;16960;49.404;8.248;2024-02-26T11:36:38;23.50;35.00
30148;DHT22;16960;49.404;8.248;2024-02-26T11:39:05;23.50;35.10
30148;DHT22;16960;49.404;8.248;2024-02-26T11:41:33;23.50;35.10
30148;DHT22;16960;49.404;8.248;2024-02-26T11:44:01;23.50;35.00
30148;DHT22;16960;49.404;8.248;2024-02-26T11:46:32;23.50;35.10
30148;DHT22;16960;49.404;8.248;2024-02-26T11:49:00;23.50;35.10
30148;DHT22;16960;49.404;8.248;2024-02-26T11:51:28;23.40;35.00
30148;DHT22;16960;49.404;8.248;2024-02-26T11:53:59;23.50;35.10
30148;DHT22;16960;49.404;8.248;2024-02-26T11:56:26;23.40;35.10
30148;DHT22;16960;49.404;8.248;2024-02-26T11:58:59;23.50;35.10
30148;DHT22;16960;49.404;8.248;2024-02-26T12:01:44;23.50;35.10
30148;DHT22;16960;49.404;8.248;2024-02-26T12:04:16;23.50;35.10
30148;DHT22;16960;49.404;8.248;2024-02-26T12:06:45;23.50;35.10
30148;DHT22;16960;49.404;8.248;2024-02-26T12:09:12;23.50;35.20
30148;DHT22;16960;49.404;8.248;2024-02-26T12:11:40;23.40;35.10
30148;DHT22;16960;49.404;8.248;2024-02-26T12:14:08;23.50;35.20
30148;DHT22;16960;49.404;8.248;2024-02-26T12:16:36;23.40;35.20
30148;DHT22;16960;49.404;8.248;2024-02-26T12:19:06;23.40;35.30
30148;DHT22;16960;49.404;8.248;2024-02-26T12:21:34;23.50;35.30
30148;DHT22;16960;49.404;8.248;2024-02-26T12:24:13;23.50;35.30
30148;DHT22;16960;49.404;8.248;2024-02-26T12:26:41;23.50;35.40
30148;DHT22;16960;49.404;8.248;2024-02-26T12:29:08;23.40;35.30
30148;DHT22;16960;49.404;8.248;2024-02-26T12:31:36;23.40;35.30
30148;DHT22;16960;49.404;8.248;2024-02-26T12:34:06;23.40;35.30
30148;DHT22;16960;49.404;8.248;2024-02-26T12:36:35;23.40;35.30
30148;DHT22;16960;49.404;8.248;2024-02-26T12:39:02;23.40;35.30
30148;DHT22;16960;49.404;8.248;2024-02-26T12:41:31;23.40;35.40
30148;DHT22;16960;49.404;8.248;2024-02-26T12:43:58;23.50;35.40
30148;DHT22;16960;49.404;8.248;2024-02-26T12:46:25;23.50;35.40
30148;DHT22;16960;49.404;8.248;2024-02-26T12:48:55;23.50;35.40
30148;DHT22;16960;49.404;8.248;2024-02-26T12:51:25;23.50;35.40
30148;DHT22;16960;49.404;8.248;2024-02-26T12:53:53;23.50;35.40
30148;DHT22;16960;49.404;8.248;2024-02-26T12:56:21;23.50;35.40
30148;DHT22;16960;49.404;8.248;2024-02-26T12:58:50;23.50;35.40
30148;DHT22;16960;49.404;8.248;2024-02-26T13:01:23;23.50;35.40
30148;DHT22;16960;49.404;8.248;2024-02-26T13:03:52;23.50;35.40
30148;DHT22;16960;49.404;8.248;2024-02-26T13:06:19;23.50;35.40
30148;DHT22;16960;49.404;8.248;2024-02-26T13:08:49;23.50;35.50
30148;DHT22;16960;49.404;8.248;2024-02-26T13:11:16;23.50;35.50
30148;DHT22;16960;49.404;8.248;2024-02-26T13:13:47;23.50;35.50
30148;DHT22;16960;49.404;8.248;2024-02-26T13:16:15;23.50;35.50
30148;DHT22;16960;49.404;8.248;2024-02-26T13:18:42;23.60;35.50
30148;DHT22;16960;49.404;8.248;2024-02-26T13:21:11;23.50;36.10
30148;DHT22;16960;49.404;8.248;2024-02-26T13:23:39;23.60;35.50
30148;DHT22;16960;49.404;8.248;2024-02-26T13:26:11;23.50;35.50
30148;DHT22;16960;49.404;8.248;2024-02-26T13:28:38;23.60;35.50
30148;DHT22;16960;49.404;8.248;2024-02-26T13:31:05;23.50;35.50
30148;DHT22;16960;49.404;8.248;2024-02-26T13:33:33;23.50;35.50
30148;DHT22;16960;49.404;8.248;2024-02-26T13:36:01;23.50;35.50
30148;DHT22;16960;49.404;8.248;2024-02-26T13:38:28;23.60;35.50
30148;DHT22;16960;49.404;8.248;2024-02-26T13:40:55;23.60;35.50
30148;DHT22;16960;49.404;8.248;2024-02-26T13:43:23;23.60;35.50
30148;DHT22;16960;49.404;8.248;2024-02-26T13:45:51;23.60;35.50
30148;DHT22;16960;49.404;8.248;2024-02-26T13:48:18;23.70;35.60
30148;DHT22;16960;49.404;8.248;2024-02-26T13:50:44;23.70;35.60
30148;DHT22;16960;49.404;8.248;2024-02-26T13:53:12;23.70;35.50
30148;DHT22;16960;49.404;8.248;2024-02-26T13:55:40;23.80;35.50
30148;DHT22;16960;49.404;8.248;2024-02-26T13:58:08;23.80;35.50
30148;DHT22;16960;49.404;8.248;2024-02-26T14:00:39;23.80;35.40
30148;DHT22;16960;49.404;8.248;2024-02-26T14:03:07;23.90;35.50
30148;DHT22;16960;49.404;8.248;2024-02-26T14:05:34;23.90;35.40
30148;DHT22;16960;49.404;8.248;2024-02-26T14:08:01;23.90;35.40
30148;DHT22;16960;49.404;8.248;2024-02-26T14:10:28;24.00;35.40
30148;DHT22;16960;49.404;8.248;2024-02-26T14:12:56;24.00;35.40
30148;DHT22;16960;49.404;8.248;2024-02-26T14:15:22;24.00;35.30
30148;DHT22;16960;49.404;8.248;2024-02-26T14:17:52;24.00;35.30
30148;DHT22;16960;49.404;8.248;2024-02-26T14:20:22;24.00;35.30
30148;DHT22;16960;49.404;8.248;2024-02-26T14:22:49;24.00;35.30
30148;DHT22;16960;49.404;8.248;2024-02-26T14:25:15;24.00;35.30
30148;DHT22;16960;49.404;8.248;2024-02-26T14:27:41;24.00;35.30
30148;DHT22;16960;49.404;8.248;2024-02-26T14:30:09;24.00;35.30
30148;DHT22;16960;49.404;8.248;2024-02-26T14:32:36;24.00;35.30
30148;DHT22;16960;49.404;8.248;2024-02-26T14:35:06;24.00;35.30
30148;DHT22;16960;49.404;8.248;2024-02-26T14:37:34;24.00;35.30
30148;DHT22;16960;49.404;8.248;2024-02-26T14:40:01;24.00;35.30
30148;DHT22;16960;49.404;8.248;2024-02-26T14:42:29;24.00;35.30
30148;DHT22;16960;49.404;8.248;2024-02-26T14:44:56;24.00;35.30
30148;DHT22;16960;49.404;8.248;2024-02-26T14:47:23;24.00;35.30
30148;DHT22;16960;49.404;8.248;2024-02-26T14:49:50;24.00;35.30
30148;DHT22;16960;49.404;8.248;2024-02-26T14:52:18;24.00;35.40
30148;DHT22;16960;49.404;8.248;2024-02-26T14:54:45;24.00;35.40
30148;DHT22;16960;49.404;8.248;2024-02-26T14:57:12;24.10;35.40
30148;DHT22;16960;49.404;8.248;2024-02-26T14:59:40;24.00;35.40
30148;DHT22;16960;49.404;8.248;2024-02-26T15:02:07;24.10;35.50
30148;DHT22;16960;49.404;8.248;2024-02-26T15:04:36;24.10;35.50
30148;DHT22;16960;49.404;8.248;2024-02-26T15:07:03;24.10;35.50
30148;DHT22;16960;49.404;8.248;2024-02-26T15:09:31;24.10;35.50
30148;DHT22;16960;49.404;8.248;2024-02-26T15:12:00;24.10;35.50
30148;DHT22;16960;49.404;8.248;2024-02-26T15:14:28;24.10;35.50
30148;DHT22;16960;49.404;8.248;2024-02-26T15:16:55;24.10;35.50
30148;DHT22;16960;49.404;8.248;2024-02-26T15:19:22;24.10;36.10
30148;DHT22;16960;49.404;8.248;2024-02-26T15:21:49;24.10;35.50
30148;DHT22;16960;49.404;8.248;2024-02-26T15:24:16;24.10;35.50
30148;DHT22;16960;49.404;8.248;2024-02-26T15:26:44;24.10;35.50
30148;DHT22;16960;49.404;8.248;2024-02-26T15:29:11;24.10;35.50
30148;DHT22;16960;49.404;8.248;2024-02-26T15:31:39;24.10;35.50
30148;DHT22;16960;49.404;8.248;2024-02-26T15:34:05;24.10;35.50